Time;durP1;ratioP1;P1;durP2;ratioP2;P2;SDS_P1;SDS_P2;PMS_P1;PMS_P2;Temp;Humidity;BMP_temperature;BMP_pressure;BME280_temperature;BME280_humidity;BME280_pressure;Samples;Min_cycle;Max_cycle;Signal;HPM_P1;HPM_P2
2021/09/22 00:02:05;;;;;;;;;;;;;;;20.26;53.05;101471.50;5023895;28;1603;-47
2021/09/22 00:04:31;;;;;;;;;;;;;;;20.23;54.36;101471.78;5024022;28;1460;-47
2021/09/22 00:06:59;;;;;;;;;;;;;;;20.22;52.83;101482.63;5026803;28;1179;-48
2021/09/22 00:09:25;;;;;;;;;;;;;;;20.26;52.90;101470.66;5032314;28;2112;-49
2021/09/22 00:11:52;;;;;;;;;;;;;;;20.34;53.00;101467.34;5023655;28;1670;-47
2021/09/22 00:14:19;;;;;;;;;;;;;;;20.34;53.04;101478.94;5023341;28;1910;-48
2021/09/22 00:16:45;;;;;;;;;;;;;;;20.34;52.05;101483.44;5024375;28;1757;-48
2021/09/22 00:19:12;;;;;;;;;;;;;;;20.33;53.28;101471.00;5024503;28;2065;-48
2021/09/22 00:21:38;;;;;;;;;;;;;;;20.35;51.91;101480.66;5024516;28;1075;-47
2021/09/22 00:24:06;;;;;;;;;;;;;;;20.36;52.19;101473.44;5032338;28;1792;-47
2021/09/22 00:26:33;;;;;;;;;;;;;;;20.34;52.09;101478.09;5023467;28;1599;-47
2021/09/22 00:29:00;;;;;;;;;;;;;;;20.33;52.78;101476.38;5025071;28;1746;-47
2021/09/22 00:31:27;;;;;;;;;;;;;;;20.36;52.46;101479.66;5024843;28;1107;-47
2021/09/22 00:33:54;;;;;;;;;;;;;;;20.37;51.65;101483.19;5030781;28;1926;-47
2021/09/22 00:36:20;;;;;;;;;;;;;;;20.31;51.97;101464.88;5024569;28;1759;-47
2021/09/22 00:38:47;;;;;;;;;;;;;;;20.40;52.03;101488.31;5024185;28;1827;-47
2021/09/22 00:41:15;;;;;;;;;;;;;;;20.35;51.69;101485.13;5024838;28;1887;-48
2021/09/22 00:43:41;;;;;;;;;;;;;;;20.36;52.12;101481.50;5023745;28;1158;-47
2021/09/22 00:46:08;;;;;;;;;;;;;;;20.45;52.67;101484.28;5023711;28;1040;-48
2021/09/22 00:48:35;;;;;;;;;;;;;;;20.41;52.25;101468.50;5030262;28;1859;-48
2021/09/22 00:51:03;;;;;;;;;;;;;;;20.44;52.05;101470.97;5027245;28;1597;-47
2021/09/22 00:53:29;;;;;;;;;;;;;;;20.37;52.62;101459.88;5015764;28;1910;-48
2021/09/22 00:55:56;;;;;;;;;;;;;;;20.35;52.39;101459.16;5025163;28;1071;-47
2021/09/22 00:58:24;;;;;;;;;;;;;;;20.34;52.89;101456.59;5022414;28;1797;-48
2021/09/22 01:00:51;;;;;;;;;;;;;;;20.34;52.70;101467.34;5022860;28;2110;-47
2021/09/22 01:03:17;;;;;;;;;;;;;;;20.27;53.38;101446.38;5030380;28;1900;-48
2021/09/22 01:05:45;;;;;;;;;;;;;;;20.24;53.82;101451.97;5022006;28;1698;-47
2021/09/22 01:08:12;;;;;;;;;;;;;;;20.15;52.67;101447.34;5031477;28;1143;-47
2021/09/22 01:10:39;;;;;;;;;;;;;;;20.14;53.43;101445.66;5022110;28;1635;-48
2021/09/22 01:13:05;;;;;;;;;;;;;;;20.29;53.57;101426.56;5022964;28;1972;-47
2021/09/22 01:15:35;;;;;;;;;;;;;;;20.40;52.08;101438.13;5024464;28;1633;-47
2021/09/22 01:18:02;;;;;;;;;;;;;;;20.26;53.72;101441.09;5024530;28;1874;-47
2021/09/22 01:20:30;;;;;;;;;;;;;;;20.27;52.62;101437.44;5024468;28;1675;-47
2021/09/22 01:22:59;;;;;;;;;;;;;;;20.14;52.71;101429.56;5028508;28;1624;-47
2021/09/22 01:25:25;;;;;;;;;;;;;;;20.08;53.52;101426.53;5022774;28;1821;-47
2021/09/22 01:27:53;;;;;;;;;;;;;;;20.08;53.56;101423.84;5024006;28;1929;-47
2021/09/22 01:30:20;;;;;;;;;;;;;;;20.32;53.82;101423.63;5023823;28;1749;-47
2021/09/22 01:32:50;;;;;;;;;;;;;;;20.36;52.77;101427.78;5023728;28;1902;-48
2021/09/22 01:35:17;;;;;;;;;;;;;;;20.33;53.33;101419.94;5024236;28;1644;-47
2021/09/22 01:37:43;;;;;;;;;;;;;;;20.18;53.68;101420.25;5027140;28;937;-47
2021/09/22 01:40:12;;;;;;;;;;;;;;;20.12;53.36;101425.28;5024474;28;2000;-47
2021/09/22 01:42:38;;;;;;;;;;;;;;;20.08;53.38;101432.75;5023897;28;1762;-47
2021/09/22 01:45:05;;;;;;;;;;;;;;;20.15;53.25;101430.41;5024150;28;1859;-47
2021/09/22 01:47:32;;;;;;;;;;;;;;;20.18;52.50;101424.78;5024521;28;1762;-48
2021/09/22 01:50:01;;;;;;;;;;;;;;;20.10;52.99;101421.88;5023716;28;2119;-47
2021/09/22 01:52:28;;;;;;;;;;;;;;;19.89;53.80;101408.38;5024265;28;1043;-47
2021/09/22 01:54:55;;;;;;;;;;;;;;;19.92;54.01;101409.00;5026161;28;1981;-48
2021/09/22 01:57:23;;;;;;;;;;;;;;;20.13;54.15;101381.34;5023789;28;2072;-47
2021/09/22 01:59:50;;;;;;;;;;;;;;;20.10;53.97;101408.47;5023490;28;1832;-48
2021/09/22 02:02:16;;;;;;;;;;;;;;;20.02;53.54;101401.88;5130676;23;3540;-46
2021/09/22 02:04:43;;;;;;;;;;;;;;;20.01;53.84;101402.84;5041776;28;1721;-46
2021/09/22 02:07:09;;;;;;;;;;;;;;;20.00;52.66;101398.47;5042720;28;1558;-45
2021/09/22 02:09:36;;;;;;;;;;;;;;;19.98;53.85;101405.78;5042061;28;1581;-47
2021/09/22 02:12:03;;;;;;;;;;;;;;;19.95;53.78;101397.97;5043921;28;2268;-46
2021/09/22 02:14:31;;;;;;;;;;;;;;;19.97;53.28;101389.81;5044527;28;1901;-47
2021/09/22 02:16:57;;;;;;;;;;;;;;;20.10;54.38;101409.31;5043126;28;1786;-46
2021/09/22 02:19:24;;;;;;;;;;;;;;;20.17;53.91;101415.00;5041762;28;1055;-47
2021/09/22 02:21:51;;;;;;;;;;;;;;;20.26;53.51;101407.03;5039977;28;1861;-46
2021/09/22 02:24:17;;;;;;;;;;;;;;;20.36;53.04;101406.28;5039315;28;1957;-47
2021/09/22 02:26:44;;;;;;;;;;;;;;;20.18;52.45;101392.56;5040662;28;1099;-46
2021/09/22 02:29:11;;;;;;;;;;;;;;;20.20;53.61;101398.66;5042038;28;1971;-48
2021/09/22 02:31:39;;;;;;;;;;;;;;;20.10;52.70;101379.78;5041968;28;1884;-45
2021/09/22 02:34:05;;;;;;;;;;;;;;;20.00;53.21;101386.88;5041978;28;1914;-46
2021/09/22 02:36:33;;;;;;;;;;;;;;;20.03;52.65;101390.19;5042065;28;1583;-46
2021/09/22 02:38:59;;;;;;;;;;;;;;;19.98;52.71;101386.16;5042068;28;1918;-46
2021/09/22 02:41:26;;;;;;;;;;;;;;;20.01;53.58;101375.16;5042679;28;1633;-46
2021/09/22 02:43:52;;;;;;;;;;;;;;;20.04;53.31;101375.75;5042443;28;1839;-47
2021/09/22 02:46:19;;;;;;;;;;;;;;;20.00;53.36;101376.16;5043763;28;1047;-46
2021/09/22 02:48:47;;;;;;;;;;;;;;;19.98;53.37;101362.00;5044146;28;1897;-46
2021/09/22 02:51:13;;;;;;;;;;;;;;;20.02;54.09;101371.50;5044458;28;1563;-46
2021/09/22 02:53:40;;;;;;;;;;;;;;;20.13;54.11;101362.53;5036679;28;2104;-48
2021/09/22 02:56:07;;;;;;;;;;;;;;;20.01;53.95;101348.31;5045569;28;1596;-47
2021/09/22 02:58:33;;;;;;;;;;;;;;;19.82;54.12;101363.25;5048578;28;1081;-46
2021/09/22 03:01:00;;;;;;;;;;;;;;;19.74;54.74;101363.03;5047597;28;1701;-47
2021/09/22 03:03:27;;;;;;;;;;;;;;;19.81;54.51;101368.75;5046593;28;1564;-46
2021/09/22 03:05:55;;;;;;;;;;;;;;;19.87;53.95;101362.88;5044314;28;1497;-46
2021/09/22 03:08:22;;;;;;;;;;;;;;;19.87;53.24;101352.13;5037570;28;1003;-46
2021/09/22 03:10:48;;;;;;;;;;;;;;;19.88;54.51;101356.53;5047796;28;1801;-46
2021/09/22 03:13:15;;;;;;;;;;;;;;;19.86;53.73;101353.13;5046430;28;1905;-46
2021/09/22 03:15:41;;;;;;;;;;;;;;;19.86;53.11;101362.03;5045517;28;1910;-48
2021/09/22 03:18:08;;;;;;;;;;;;;;;19.82;54.74;101367.78;5044962;28;1676;-46
2021/09/22 03:20:35;;;;;;;;;;;;;;;19.85;53.95;101364.84;5044845;28;1519;-46
2021/09/22 03:23:03;;;;;;;;;;;;;;;19.82;54.01;101365.94;5041371;28;1072;-46
2021/09/22 03:25:29;;;;;;;;;;;;;;;19.80;53.19;101373.28;5046501;28;1650;-46
2021/09/22 03:27:56;;;;;;;;;;;;;;;19.86;53.58;101364.72;5045152;28;1585;-46
2021/09/22 03:30:22;;;;;;;;;;;;;;;19.79;53.65;101374.22;5045046;28;2318;-47
2021/09/22 03:32:49;;;;;;;;;;;;;;;19.82;54.45;101359.72;5044869;28;1715;-47
2021/09/22 03:35:15;;;;;;;;;;;;;;;19.78;53.87;101344.88;5044785;28;1906;-46
2021/09/22 03:37:42;;;;;;;;;;;;;;;19.70;54.25;101350.81;5041828;28;1169;-46
2021/09/22 03:40:12;;;;;;;;;;;;;;;19.67;52.93;101351.91;5042405;28;1643;-46
2021/09/22 03:42:38;;;;;;;;;;;;;;;19.65;54.44;101347.66;5040803;28;1839;-47
2021/09/22 03:45:05;;;;;;;;;;;;;;;19.57;53.57;101345.59;5044521;28;2051;-46
2021/09/22 03:47:32;;;;;;;;;;;;;;;19.58;53.18;101347.31;5045430;28;1561;-45
2021/09/22 03:49:59;;;;;;;;;;;;;;;19.54;53.76;101347.69;5046153;28;1936;-47
2021/09/22 03:52:25;;;;;;;;;;;;;;;19.53;53.29;101345.97;5043164;28;1346;-46
2021/09/22 03:54:52;;;;;;;;;;;;;;;19.50;54.17;101344.41;5040660;28;1972;-47
2021/09/22 03:57:20;;;;;;;;;;;;;;;20.13;52.96;101343.75;5044276;28;1488;-46
2021/09/22 03:59:46;;;;;;;;;;;;;;;20.83;52.34;101342.25;5044651;28;1670;-47
2021/09/22 04:02:13;;;;;;;;;;;;;;;21.12;53.37;101353.16;5045792;28;2276;-47
2021/09/22 04:04:39;;;;;;;;;;;;;;;21.29;53.28;101349.00;5040589;28;2066;-47
2021/09/22 04:07:06;;;;;;;;;;;;;;;21.35;53.50;101355.66;5035907;28;1782;-46
2021/09/22 04:09:32;;;;;;;;;;;;;;;21.40;53.33;101381.16;5035878;28;1822;-46
2021/09/22 04:11:59;;;;;;;;;;;;;;;21.41;52.44;101361.34;5035604;28;1859;-45
2021/09/22 04:14:27;;;;;;;;;;;;;;;21.44;52.76;101363.78;5045830;28;1910;-46
2021/09/22 04:16:53;;;;;;;;;;;;;;;21.48;53.02;101363.50;5045051;28;1716;-46
2021/09/22 04:19:20;;;;;;;;;;;;;;;21.47;52.50;101351.91;5044123;28;1768;-46
2021/09/22 04:21:46;;;;;;;;;;;;;;;21.52;52.68;101351.47;5044023;28;1540;-47
2021/09/22 04:24:13;;;;;;;;;;;;;;;21.54;53.01;101362.97;5040829;28;1926;-45
2021/09/22 04:26:40;;;;;;;;;;;;;;;21.54;53.35;101363.81;5045535;28;1672;-46
2021/09/22 04:29:07;;;;;;;;;;;;;;;21.55;53.64;101341.31;5044795;28;1709;-46
2021/09/22 04:31:34;;;;;;;;;;;;;;;21.61;53.17;101350.66;5037053;28;1625;-47
2021/09/22 04:34:01;;;;;;;;;;;;;;;21.66;52.82;101326.84;5035343;28;1910;-46
2021/09/22 04:36:28;;;;;;;;;;;;;;;21.73;53.51;101327.16;5045426;28;1741;-46
2021/09/22 04:38:54;;;;;;;;;;;;;;;21.69;53.13;101337.34;5038605;28;1678;-46
2021/09/22 04:41:21;;;;;;;;;;;;;;;21.69;53.89;101340.06;5043747;28;1537;-47
2021/09/22 04:43:48;;;;;;;;;;;;;;;21.69;53.88;101314.97;5044876;28;1557;-47
2021/09/22 04:46:15;;;;;;;;;;;;;;;21.75;53.18;101335.97;5045774;28;1082;-47
2021/09/22 04:48:43;;;;;;;;;;;;;;;21.74;53.09;101312.69;5045492;28;1863;-46
2021/09/22 04:51:09;;;;;;;;;;;;;;;21.79;53.96;101315.84;5042887;28;2097;-46
2021/09/22 04:53:36;;;;;;;;;;;;;;;21.75;53.51;101342.19;5041816;28;1942;-47
2021/09/22 04:56:03;;;;;;;;;;;;;;;21.77;54.04;101350.13;5038906;28;1330;-48
2021/09/22 04:58:29;;;;;;;;;;;;;;;21.84;53.89;101345.88;5040585;28;1656;-48
2021/09/22 05:00:59;;;;;;;;;;;;;;;21.83;54.06;101350.41;5040571;28;1483;-47
2021/09/22 05:03:25;;;;;;;;;;;;;;;21.93;54.01;101352.28;5035064;28;1545;-46
2021/09/22 05:05:53;;;;;;;;;;;;;;;21.96;53.49;101360.03;5041042;28;1538;-46
2021/09/22 05:08:20;;;;;;;;;;;;;;;21.96;54.05;101327.72;5035088;28;1304;-47
2021/09/22 05:10:46;;;;;;;;;;;;;;;21.98;53.19;101331.97;5035624;28;2085;-46
2021/09/22 05:13:13;;;;;;;;;;;;;;;22.01;53.42;101357.81;5040499;28;1498;-48
2021/09/22 05:15:39;;;;;;;;;;;;;;;22.03;53.63;101334.25;5036372;28;1906;-47
2021/09/22 05:18:06;;;;;;;;;;;;;;;22.11;53.23;101353.25;5040384;28;1603;-48
2021/09/22 05:20:33;;;;;;;;;;;;;;;22.14;53.01;101344.03;5036973;28;1769;-47
2021/09/22 05:23:01;;;;;;;;;;;;;;;22.13;53.29;101345.88;5036788;28;2595;-47
2021/09/22 05:25:28;;;;;;;;;;;;;;;22.23;53.38;101306.31;5034745;28;1546;-46
2021/09/22 05:27:55;;;;;;;;;;;;;;;22.32;53.51;101328.03;5038392;28;1513;-47
2021/09/22 05:30:21;;;;;;;;;;;;;;;22.34;53.74;101326.03;5041952;28;1489;-47
2021/09/22 05:32:47;;;;;;;;;;;;;;;;;;5033912;28;1549;-48
2021/09/22 05:35:14;;;;;;;;;;;;;;;22.39;53.53;101316.53;5033139;28;1910;-47
2021/09/22 05:37:40;;;;;;;;;;;;;;;22.40;53.78;101320.06;5035644;28;1348;-47
2021/09/22 05:40:09;;;;;;;;;;;;;;;22.45;53.75;101339.38;5034631;28;1540;-48
2021/09/22 05:42:36;;;;;;;;;;;;;;;22.43;53.78;101344.91;5040599;28;1581;-46
2021/09/22 05:45:04;;;;;;;;;;;;;;;22.41;53.85;101348.72;5037332;28;1556;-47
2021/09/22 05:47:52;;;;;;;;;;;;;;;22.41;54.00;101343.34;5040178;28;1478;-46
2021/09/22 05:50:19;;;;;;;;;;;;;;;22.43;53.99;101379.09;5036451;28;1933;-46
2021/09/22 05:52:54;;;;;;;;;;;;;;;22.41;53.86;101362.22;5039632;28;1510;-47
2021/09/22 05:55:25;;;;;;;;;;;;;;;22.41;53.59;101376.53;5039705;28;1911;-46
2021/09/22 05:57:52;;;;;;;;;;;;;;;22.45;53.89;101379.78;5038864;28;1478;-47
2021/09/22 06:00:18;;;;;;;;;;;;;;;22.38;52.84;101384.03;5036814;28;1637;-45
2021/09/22 06:02:55;;;;;;;;;;;;;;;21.38;51.62;101383.13;5038444;28;1537;-46
2021/09/22 06:05:23;;;;;;;;;;;;;;;21.28;52.08;101366.09;5043491;28;1545;-45
2021/09/22 06:08:00;;;;;;;;;;;;;;;21.33;52.13;101369.25;5037341;28;1361;-45
2021/09/22 06:10:29;;;;;;;;;;;;;;;21.24;51.81;101364.66;5042943;28;1494;-45
2021/09/22 06:12:56;;;;;;;;;;;;;;;21.16;51.37;101346.53;5038325;28;1581;-46
2021/09/22 06:15:24;;;;;;;;;;;;;;;21.15;50.90;101362.78;5038184;28;1909;-46
2021/09/22 06:17:51;;;;;;;;;;;;;;;20.99;51.98;101364.16;5034405;28;1509;-45
2021/09/22 06:20:21;;;;;;;;;;;;;;;20.74;51.65;101367.25;5034935;28;1529;-44
2021/09/22 06:22:49;;;;;;;;;;;;;;;20.71;51.88;101370.19;5048056;28;1108;-46
2021/09/22 06:25:20;;;;;;;;;;;;;;;20.94;50.87;101363.69;5031271;28;1660;-47
2021/09/22 06:27:50;;;;;;;;;;;;;;;20.87;51.09;101354.47;5042690;28;1995;-45
2021/09/22 06:30:17;;;;;;;;;;;;;;;20.97;51.55;101366.13;5038598;28;1524;-45
2021/09/22 06:32:50;;;;;;;;;;;;;;;21.07;52.36;101371.56;5035104;28;1797;-46
2021/09/22 06:35:19;;;;;;;;;;;;;;;21.01;51.93;101348.72;5042258;28;1969;-45
2021/09/22 06:37:48;;;;;;;;;;;;;;;21.05;51.38;101357.38;5034632;28;1262;-44
2021/09/22 06:40:20;;;;;;;;;;;;;;;20.96;50.62;101360.88;5049057;28;1541;-45
2021/09/22 06:42:48;;;;;;;;;;;;;;;21.03;51.08;101345.91;5043921;28;1653;-44
2021/09/22 06:45:16;;;;;;;;;;;;;;;20.98;51.15;101337.38;5041876;28;2021;-45
2021/09/22 06:47:43;;;;;;;;;;;;;;;20.95;51.60;101343.03;5044595;28;1717;-45
2021/09/22 06:50:10;;;;;;;;;;;;;;;21.07;51.54;101339.28;5040882;28;1643;-45
2021/09/22 06:52:40;;;;;;;;;;;;;;;21.09;51.33;101339.13;5037117;28;1580;-45
2021/09/22 06:55:07;;;;;;;;;;;;;;;21.15;51.26;101343.97;5050662;28;1909;-45
2021/09/22 06:57:34;;;;;;;;;;;;;;;21.16;51.41;101335.75;5039703;28;1478;-44
2021/09/22 07:00:13;;;;;;;;;;;;;;;21.02;52.22;101342.34;5038393;28;1772;-45
2021/09/22 07:05:23;;;;;;;;;;;;;;;20.72;51.88;101348.56;5047732;28;1699;-42
2021/09/22 07:07:51;;;;;;;;;;;;;;;20.99;51.26;101341.75;5055488;28;1083;-43
2021/09/22 07:10:39;;;;;;;;;;;;;;;20.95;51.45;101351.97;5052428;28;1617;-44
2021/09/22 07:13:08;;;;;;;;;;;;;;;20.77;51.16;101353.53;5046365;28;1601;-43
2021/09/22 07:15:36;;;;;;;;;;;;;;;20.90;51.25;101354.19;5041473;28;1975;-42
2021/09/22 07:18:02;;;;;;;;;;;;;;;20.94;51.43;101352.94;5044486;28;1738;-47
2021/09/22 07:20:33;;;;;;;;;;;;;;;20.98;51.31;101361.59;5034752;28;1687;-42
2021/09/22 07:23:01;;;;;;;;;;;;;;;20.90;50.72;101356.88;5046932;28;1316;-42
2021/09/22 07:25:27;;;;;;;;;;;;;;;20.94;51.66;101361.00;5049307;28;1895;-40
2021/09/22 07:27:54;;;;;;;;;;;;;;;21.24;51.55;101370.06;5044577;28;1640;-43
2021/09/22 07:30:21;;;;;;;;;;;;;;;21.36;51.24;101354.66;5044293;28;1620;-44
2021/09/22 07:32:49;;;;;;;;;;;;;;;21.59;50.74;101360.72;5044635;28;1684;-42
2021/09/22 07:35:17;;;;;;;;;;;;;;;21.69;51.07;101349.97;5039125;28;1985;-42
2021/09/22 07:37:44;;;;;;;;;;;;;;;21.54;51.77;101344.13;5041981;28;1327;-39
2021/09/22 07:40:11;;;;;;;;;;;;;;;21.46;50.68;101358.25;5039586;28;1701;-43
2021/09/22 07:42:38;;;;;;;;;;;;;;;21.59;51.12;101349.94;5040705;28;1812;-45
2021/09/22 07:45:08;;;;;;;;;;;;;;;21.55;51.63;101340.47;5040200;28;1839;-41
2021/09/22 07:47:36;;;;;;;;;;;;;;;21.52;51.38;101338.03;5041899;28;2276;-42
2021/09/22 07:50:09;;;;;;;;;;;;;;;21.33;50.67;101338.78;5036761;28;1815;-41
2021/09/22 07:52:37;;;;;;;;;;;;;;;21.52;51.44;101332.66;5040945;28;1356;-41
2021/09/22 07:55:05;;;;;;;;;;;;;;;21.73;51.80;101332.56;5042575;28;1968;-39
2021/09/22 07:57:41;;;;;;;;;;;;;;;21.70;51.27;101327.44;5045298;28;1589;-41
2021/09/22 08:00:10;;;;;;;;;;;;;;;21.73;50.23;101319.94;5042608;28;1549;-41
2021/09/22 08:02:40;;;;;;;;;;;;;;;21.83;50.85;101311.88;5047070;28;1537;-41
2021/09/22 08:05:10;;;;;;;;;;;;;;;21.90;49.68;101313.00;5039233;28;1514;-42
2021/09/22 08:07:38;;;;;;;;;;;;;;;22.10;50.00;101303.06;5044724;28;2019;-43
2021/09/22 08:10:08;;;;;;;;;;;;;;;22.07;49.34;101313.28;5050790;28;1842;-42
2021/09/22 08:12:35;;;;;;;;;;;;;;;21.93;49.25;101318.09;5036171;28;1758;-42
2021/09/22 08:15:05;;;;;;;;;;;;;;;21.86;49.68;101327.72;5053115;28;1979;-43
2021/09/22 08:17:32;;;;;;;;;;;;;;;21.74;50.29;101312.69;5042890;28;1491;-44
2021/09/22 08:22:55;;;;;;;;;;;;;;;21.76;51.71;101298.09;5040820;28;1721;-44
2021/09/22 08:25:35;;;;;;;;;;;;;;;21.83;51.18;101306.47;5053646;28;1588;-42
2021/09/22 08:28:03;;;;;;;;;;;;;;;21.85;51.33;101293.72;5053458;28;1948;-44
2021/09/22 08:30:39;;;;;;;;;;;;;;;21.85;50.71;101305.34;5043657;28;2161;-43
2021/09/22 08:33:07;;;;;;;;;;;;;;;21.40;49.86;101278.06;5040629;28;1709;-43
2021/09/22 08:35:43;;;;;;;;;;;;;;;21.63;51.48;101274.16;5044286;28;1965;-43
2021/09/22 08:38:09;;;;;;;;;;;;;;;21.72;50.52;101283.22;5040075;28;1315;-43
2021/09/22 08:40:40;;;;;;;;;;;;;;;21.68;49.33;101276.44;5038146;28;2068;-43
2021/09/22 08:43:14;;;;;;;;;;;;;;;21.72;50.56;101256.31;5042372;28;1612;-43
2021/09/22 08:46:01;;;;;;;;;;;;;;;21.83;49.75;101256.19;5033847;28;2160;-41
2021/09/22 08:48:28;;;;;;;;;;;;;;;21.82;50.70;101245.53;5038816;28;1928;-44
2021/09/22 08:50:56;;;;;;;;;;;;;;;21.82;50.20;101261.69;5041071;28;1473;-43
2021/09/22 08:53:22;;;;;;;;;;;;;;;21.74;50.42;101281.25;5044120;28;1347;-45
2021/09/22 08:55:55;;;;;;;;;;;;;;;21.61;50.20;101264.53;5041965;28;1977;-45
2021/09/22 08:58:22;;;;;;;;;;;;;;;21.67;50.29;101250.50;5051679;28;1738;-44
2021/09/22 09:00:51;;;;;;;;;;;;;;;21.69;50.43;101239.63;5035820;28;1883;-44
2021/09/22 09:03:53;;;;;;;;;;;;;;;21.49;50.07;101271.00;5045441;28;1637;-44
2021/09/22 09:06:24;;;;;;;;;;;;;;;21.32;49.33;101249.16;5038995;28;1947;-44
2021/09/22 09:08:53;;;;;;;;;;;;;;;21.25;51.28;101237.28;5039701;28;1768;-44
2021/09/22 09:11:33;;;;;;;;;;;;;;;21.49;50.37;101262.94;5034316;28;1659;-44
2021/09/22 09:16:48;;;;;;;;;;;;;;;21.43;50.63;101259.84;5043306;28;2476;-45
2021/09/22 09:19:18;;;;;;;;;;;;;;;21.57;50.80;101265.81;5035628;28;1608;-44
2021/09/22 09:22:03;;;;;;;;;;;;;;;21.58;49.88;101270.19;5035678;28;1773;-44
2021/09/22 09:24:33;;;;;;;;;;;;;;;21.51;50.41;101269.06;5035781;28;1653;-44
2021/09/22 09:27:17;;;;;;;;;;;;;;;21.30;49.41;101253.84;5047650;28;1617;-44
2021/09/22 09:29:50;;;;;;;;;;;;;;;20.77;50.29;101238.84;5034738;28;2192;-45
2021/09/22 09:32:18;;;;;;;;;;;;;;;20.80;50.73;101233.19;5043117;28;1590;-44
2021/09/22 09:35:01;;;;;;;;;;;;;;;21.30;49.45;101218.84;5046429;28;1828;-44
2021/09/22 09:37:36;;;;;;;;;;;;;;;20.74;48.95;101224.81;5040340;28;1544;-47
2021/09/22 09:40:17;;;;;;;;;;;;;;;21.05;49.78;101234.53;5045038;28;1965;-44
2021/09/22 09:42:44;;;;;;;;;;;;;;;21.35;48.97;101239.97;5035624;28;1717;-44
2021/09/22 09:45:36;;;;;;;;;;;;;;;20.97;48.91;101212.00;5050800;28;1881;-44
2021/09/22 09:48:08;;;;;;;;;;;;;;;20.78;49.17;101231.63;5046913;28;1697;-44
2021/09/22 09:50:59;;;;;;;;;;;;;;;20.36;49.85;101226.31;5043923;28;1745;-44
2021/09/22 09:53:26;;;;;;;;;;;;;;;19.99;49.43;101224.94;5050089;28;1900;-44
2021/09/22 09:56:04;;;;;;;;;;;;;;;20.52;48.30;101229.34;5045808;28;1967;-44
2021/09/22 09:58:41;;;;;;;;;;;;;;;21.12;48.18;101215.16;5037612;28;1788;-44
2021/09/22 10:01:09;;;;;;;;;;;;;;;21.28;48.91;101206.56;5034920;28;1656;-45
2021/09/22 10:03:45;;;;;;;;;;;;;;;21.29;47.52;101227.94;5033913;28;1669;-44
2021/09/22 10:06:13;;;;;;;;;;;;;;;20.81;48.21;101208.00;5048184;28;1670;-45
2021/09/22 10:08:40;;;;;;;;;;;;;;;20.91;48.50;101218.81;5051109;28;1840;-44
2021/09/22 10:11:07;;;;;;;;;;;;;;;20.54;48.62;101203.22;5046636;28;1695;-47
2021/09/22 10:13:37;;;;;;;;;;;;;;;21.06;49.42;101233.53;5036695;28;1794;-44
2021/09/22 10:16:05;;;;;;;;;;;;;;;21.30;49.13;101229.63;5040219;28;2345;-44
2021/09/22 10:18:37;;;;;;;;;;;;;;;21.33;47.22;101205.16;5009633;28;1551;-45
2021/09/22 10:21:08;;;;;;;;;;;;;;;21.41;47.72;101237.56;5038100;28;1510;-44
2021/09/22 10:23:39;;;;;;;;;;;;;;;21.28;46.65;101234.28;5050019;28;1810;-42
2021/09/22 10:28:49;;;;;;;;;;;;;;;20.85;48.49;101213.97;5046067;28;2440;-48
2021/09/22 10:31:36;;;;;;;;;;;;;;;21.35;49.12;101210.41;5037715;28;1771;-48
2021/09/22 10:34:04;;;;;;;;;;;;;;;21.59;48.41;101208.16;5044143;28;1554;-48
2021/09/22 10:36:39;;;;;;;;;;;;;;;21.15;46.89;101220.25;5042887;28;1917;-48
2021/09/22 10:39:08;;;;;;;;;;;;;;;21.35;47.38;101211.25;5042641;28;1958;-47
2021/09/22 10:41:44;;;;;;;;;;;;;;;21.32;48.34;101194.53;5040707;28;1567;-45
2021/09/22 10:44:12;;;;;;;;;;;;;;;21.34;47.91;101198.75;5042402;28;1736;-46
2021/09/22 10:49:37;;;;;;;;;;;;;;;21.47;49.32;101186.91;5038688;28;1846;-44
2021/09/22 10:52:04;;;;;;;;;;;;;;;21.45;49.24;101189.75;5033404;28;1540;-44
2021/09/22 10:54:30;;;;;;;;;;;;;;;21.55;49.49;101189.75;5036397;28;1676;-45
2021/09/22 10:57:00;;;;;;;;;;;;;;;21.50;48.06;101182.09;5035688;28;1979;-43
2021/09/22 10:59:39;;;;;;;;;;;;;;;21.46;47.75;101180.69;5035378;28;1593;-41
2021/09/22 11:02:08;;;;;;;;;;;;;;;21.51;50.44;101172.19;5039165;28;1621;-51
2021/09/22 11:04:59;;;;;;;;;;;;;;;21.37;48.65;101178.81;5036139;28;1771;-46
2021/09/22 11:07:42;;;;;;;;;;;;;;;21.23;48.57;101167.47;5045822;28;1463;-46
2021/09/22 11:10:23;;;;;;;;;;;;;;;21.40;49.02;101178.53;5037652;28;1803;-46
2021/09/22 11:12:53;;;;;;;;;;;;;;;21.68;49.06;101176.84;5044924;28;1661;-46
2021/09/22 11:15:25;;;;;;;;;;;;;;;21.72;49.35;101169.31;5041081;28;1958;-44
2021/09/22 11:17:52;;;;;;;;;;;;;;;21.67;48.08;101167.06;5037377;28;1973;-46
2021/09/22 11:20:27;;;;;;;;;;;;;;;21.68;48.69;101165.22;5044126;28;1705;-44
2021/09/22 11:22:56;;;;;;;;;;;;;;;21.61;48.84;101162.28;5045943;28;1802;-44
2021/09/22 11:25:24;;;;;;;;;;;;;;;21.69;49.37;101170.47;5046729;28;2163;-44
2021/09/22 11:27:54;;;;;;;;;;;;;;;21.73;48.58;101147.66;5041359;28;1579;-44
2021/09/22 11:30:22;;;;;;;;;;;;;;;21.81;48.41;101147.78;5044846;28;1945;-43
2021/09/22 11:32:50;;;;;;;;;;;;;;;21.79;48.90;101149.78;5045895;28;1613;-43
2021/09/22 11:35:18;;;;;;;;;;;;;;;21.71;51.11;101144.25;5047464;28;1495;-44
2021/09/22 11:37:48;;;;;;;;;;;;;;;21.63;49.42;101146.81;5037861;28;2035;-44
2021/09/22 11:40:16;;;;;;;;;;;;;;;21.64;49.62;101141.28;5040531;28;2109;-42
2021/09/22 11:42:55;;;;;;;;;;;;;;;21.64;49.19;101140.44;5040693;28;1686;-44
2021/09/22 11:45:34;;;;;;;;;;;;;;;21.54;48.60;101144.97;5037316;28;1724;-44
2021/09/22 11:48:01;;;;;;;;;;;;;;;21.51;48.90;101150.66;5035390;28;2145;-45
2021/09/22 11:50:29;;;;;;;;;;;;;;;21.36;48.56;101152.91;5039789;28;1748;-44
2021/09/22 11:52:57;;;;;;;;;;;;;;;21.42;49.39;101146.94;5045448;28;1382;-44
2021/09/22 11:55:24;;;;;;;;;;;;;;;21.41;48.37;101154.16;5039388;28;1957;-44
2021/09/22 11:57:51;;;;;;;;;;;;;;;21.44;49.66;101143.13;5040471;28;2555;-44
2021/09/22 12:00:19;;;;;;;;;;;;;;;21.42;48.75;101155.84;5040996;28;1922;-45
2021/09/22 12:02:45;;;;;;;;;;;;;;;21.41;49.75;101146.09;5040010;28;1732;-45
2021/09/22 12:05:16;;;;;;;;;;;;;;;21.36;49.91;101136.75;5047044;28;1532;-46
2021/09/22 12:07:43;;;;;;;;;;;;;;;21.39;49.79;101131.94;5038468;28;1671;-45
2021/09/22 12:10:11;;;;;;;;;;;;;;;21.43;49.58;101130.69;5044612;28;1781;-45
2021/09/22 12:12:38;;;;;;;;;;;;;;;21.41;49.87;101124.56;5042738;28;1665;-45
2021/09/22 12:15:06;;;;;;;;;;;;;;;21.41;48.87;101124.56;5040787;28;1589;-46
2021/09/22 12:17:35;;;;;;;;;;;;;;;21.41;50.08;101134.50;5038595;28;2057;-49
2021/09/22 12:20:02;;;;;;;;;;;;;;;21.47;49.33;101131.25;5042445;28;1933;-45
2021/09/22 12:22:30;;;;;;;;;;;;;;;21.42;49.04;101138.88;5044862;28;1993;-45
2021/09/22 12:24:58;;;;;;;;;;;;;;;21.40;49.85;101132.78;5041458;28;1598;-45
2021/09/22 12:27:27;;;;;;;;;;;;;;;21.35;49.33;101138.59;5040485;28;1651;-45
2021/09/22 12:29:58;;;;;;;;;;;;;;;21.29;49.19;101146.38;5044972;28;1713;-46
2021/09/22 12:32:26;;;;;;;;;;;;;;;21.30;49.73;101145.38;5042542;28;1701;-47
2021/09/22 12:34:55;;;;;;;;;;;;;;;21.29;49.99;101141.84;5052051;28;1836;-47
2021/09/22 12:37:22;;;;;;;;;;;;;;;21.29;49.24;101136.47;5042844;28;1969;-47
2021/09/22 12:39:53;;;;;;;;;;;;;;;21.31;49.81;101131.81;5049280;28;1738;-47
2021/09/22 12:42:20;;;;;;;;;;;;;;;21.25;50.54;101135.06;5042793;28;1828;-47
2021/09/22 12:44:55;;;;;;;;;;;;;;;21.30;49.75;101150.78;5044065;28;1609;-48
2021/09/22 12:47:22;;;;;;;;;;;;;;;21.61;50.04;101138.88;5036461;28;1981;-46
2021/09/22 12:50:19;;;;;;;;;;;;;;;21.78;50.71;101136.44;5039084;28;1565;-47
2021/09/22 12:52:48;;;;;;;;;;;;;;;21.81;50.85;101126.25;4973942;28;983;-47
2021/09/22 12:55:16;;;;;;;;;;;;;;;21.91;50.81;101125.38;5031222;28;1750;-49
2021/09/22 12:57:42;;;;;;;;;;;;;;;21.97;51.18;101124.78;5044889;28;1971;-49
2021/09/22 13:00:28;;;;;;;;;;;;;;;21.95;51.38;101116.84;5043363;28;1968;-50
2021/09/22 13:03:07;;;;;;;;;;;;;;;21.97;51.35;101111.34;5045828;28;1716;-49
2021/09/22 13:05:37;;;;;;;;;;;;;;;22.03;51.46;101119.66;5043677;28;1694;-49
2021/09/22 13:08:07;;;;;;;;;;;;;;;22.04;51.18;101125.88;5034334;28;1083;-49
2021/09/22 13:10:48;;;;;;;;;;;;;;;22.01;51.69;101112.72;5046818;28;1778;-50
2021/09/22 13:13:22;;;;;;;;;;;;;;;21.98;51.75;101134.56;5037605;28;2003;-50